This is the latest recevied weather packets stored in our database for station/object KE8KMM. If no packets are shown the sender has not sent any weather packets the latest 10 day(s).
| Time | Temp. | Humidity | Pressure | Rain* | Wind** | Luminosity | Snow |
|---|---|---|---|---|---|---|---|
| 1777423460 | 16.67° C | 87% | 1011.2 hPa | 0 mm | - | 0 W/m² | - |
| 1777423156 | 16.67° C | 87% | 1011.1 hPa | 0 mm | - | 0 W/m² | - |
| 1777422850 | 17.22° C | 87% | 1011.2 hPa | 0 mm | - | 0 W/m² | - |
| 1777422545 | 17.22° C | 87% | 1011 hPa | 0 mm | - | 0 W/m² | - |
| 1777422241 | 17.78° C | 87% | 1010.9 hPa | 0 mm | - | 0 W/m² | - |
| 1777421935 | 17.78° C | 87% | 1010.7 hPa | 0 mm | - | 1 W/m² | - |
| 1777421630 | 17.78° C | 86% | 1010.9 hPa | 0 mm | - | 3 W/m² | - |
| 1777421325 | 18.33° C | 85% | 1010.9 hPa | 0 mm | - | 6 W/m² | - |
| 1777421022 | 18.33° C | 84% | 1010.4 hPa | 0 mm | - | 10 W/m² | - |
| 1777420718 | 18.89° C | 82% | 1010.6 hPa | 0 mm | - | 14 W/m² | - |
| 1777420415 | 18.89° C | 81% | 1010.4 hPa | 0 mm | - | 16 W/m² | - |
| 1777420111 | 18.89° C | 82% | 1010.4 hPa | 0 mm | - | 19 W/m² | - |
| 1777419807 | 19.44° C | 81% | 1010.5 hPa | 0 mm | - | 23 W/m² | - |
| 1777419506 | 20° C | 79% | 1010.1 hPa | 0 mm | - | 31 W/m² | - |
| 1777419204 | 20° C | 78% | 1010.5 hPa | 0 mm | - | 39 W/m² | - |
| 1777418901 | 21.67° C | 76% | 1010.4 hPa | 0 mm | - | 40 W/m² | - |
| 1777418596 | 21.67° C | 72% | 1010.4 hPa | 0 mm | - | 50 W/m² | - |
| 1777418292 | 22.22° C | 70% | 1010.5 hPa | 0 mm | - | 38 W/m² | - |
| 1777417988 | 23.33° C | 63% | 1010.6 hPa | 0 mm | - | 71 W/m² | - |
| 1777417684 | 23.33° C | 62% | 1010.6 hPa | 0 mm | - | 80 W/m² | - |
| 1777417380 | 23.89° C | 61% | 1010.8 hPa | 0 mm | - | 104 W/m² | - |
| 1777417077 | 23.33° C | 62% | 1011.2 hPa | 0 mm | - | 116 W/m² | - |
| 1777416772 | 23.33° C | 62% | 1011.4 hPa | 0 mm | - | 139 W/m² | - |
| 1777416467 | 22.78° C | 62% | 1011.2 hPa | 0 mm | - | 89 W/m² | - |
| 1777416164 | 22.78° C | 65% | 1011.1 hPa | 0 mm | - | 74 W/m² | - |
* Rain latest hour (hover to see other rain measurements)
** Current wind speed in m/s (hover to see current wind gust speed)